createdAt,value
2018-01-31T01:54:05.232Z,5.40
2018-01-31T01:56:33.805Z,5.50
2018-01-31T02:16:19.093Z,5.40
2018-01-31T02:21:33.057Z,5.40
2018-01-31T02:24:01.301Z,5.40
2018-01-31T02:26:30.760Z,5.40
2018-01-31T02:28:59.089Z,5.40
2018-01-31T02:31:27.475Z,5.40
2018-01-31T02:33:57.073Z,5.40
2018-01-31T02:53:41.960Z,5.40
2018-01-31T02:56:11.235Z,5.40
2018-01-31T02:58:39.607Z,5.40
2018-01-31T03:03:59.062Z,5.30
2018-01-31T03:06:28.253Z,5.40
2018-01-31T03:08:57.516Z,5.40
2018-01-31T03:11:26.337Z,5.50
2018-01-31T03:31:12.268Z,5.50
2018-01-31T03:33:41.113Z,5.50
2018-01-31T03:36:09.729Z,5.50
2018-01-31T03:38:39.298Z,5.60
2018-01-31T03:41:08.617Z,5.60
2018-01-31T03:43:37.202Z,5.60
2018-01-31T03:46:06.087Z,5.70
2018-01-31T03:48:35.393Z,5.70
2018-01-31T03:51:04.151Z,5.70
2018-01-31T04:10:49.796Z,5.60
2018-01-31T04:13:18.351Z,5.60
2018-01-31T04:15:47.006Z,5.60
2018-01-31T04:18:15.253Z,5.60
2018-01-31T04:20:44.373Z,5.50
2018-01-31T04:23:13.668Z,5.60
2018-01-31T04:25:41.873Z,5.50
2018-01-31T04:28:11.837Z,5.20
2018-01-31T04:30:40.327Z,5.20
2018-01-31T04:50:27.764Z,4.60
2018-01-31T04:52:55.850Z,4.50
2018-01-31T04:55:24.530Z,4.30
2018-01-31T04:57:52.935Z,4.40
2018-01-31T05:00:21.778Z,4.40
2018-01-31T05:02:51.584Z,4.30
2018-01-31T05:05:21.221Z,4.20
2018-01-31T05:07:49.918Z,4.30
2018-01-31T05:10:18.442Z,4.20
2018-01-31T05:30:03.138Z,3.80
2018-01-31T05:32:31.911Z,3.80
2018-01-31T05:35:00.130Z,3.80
2018-01-31T05:37:29.223Z,3.80
2018-01-31T05:39:57.650Z,3.80
2018-01-31T05:42:27.502Z,3.70
2018-01-31T05:44:56.563Z,3.60
2018-01-31T05:47:26.105Z,3.70
2018-01-31T05:49:54.830Z,3.60
2018-01-31T06:09:41.121Z,3.50
2018-01-31T06:12:10.501Z,3.40
2018-01-31T06:14:40.053Z,3.50
2018-01-31T06:17:08.430Z,3.50
2018-01-31T06:19:37.167Z,3.50
2018-01-31T06:22:06.677Z,3.50
2018-01-31T06:24:35.446Z,3.50
2018-01-31T06:27:04.283Z,3.40
2018-01-31T06:29:32.780Z,3.40
2018-01-31T06:49:17.352Z,3.30
2018-01-31T06:51:46.045Z,3.20
2018-01-31T06:54:15.926Z,3.30
2018-01-31T06:56:44.890Z,3.30
2018-01-31T06:59:15.076Z,3.30
2018-01-31T07:01:44.168Z,3.40
2018-01-31T07:04:13.394Z,3.40
2018-01-31T07:06:42.135Z,3.50
2018-01-31T07:09:11.260Z,3.50
2018-01-31T07:28:56.025Z,3.80
2018-01-31T07:31:25.597Z,3.90
2018-01-31T07:33:54.805Z,4.00
2018-01-31T07:36:23.505Z,4.10
2018-01-31T07:38:52.495Z,4.10
2018-01-31T07:41:21.769Z,4.20
2018-01-31T07:43:50.246Z,4.20
2018-01-31T07:46:20.034Z,4.40
2018-01-31T07:48:48.206Z,4.40
2018-01-31T08:08:32.286Z,5.20
2018-01-31T08:11:01.491Z,5.20
2018-01-31T08:13:30.122Z,5.10
2018-01-31T08:15:58.776Z,5.30
2018-01-31T08:18:26.832Z,5.50
2018-01-31T08:20:56.297Z,5.90
2018-01-31T08:23:25.221Z,5.80
2018-01-31T08:25:54.224Z,5.90
2018-01-31T08:28:22.944Z,6.10
2018-01-31T08:48:10.492Z,6.90
2018-01-31T08:50:40.136Z,7.40
2018-01-31T08:53:08.740Z,8.30
2018-01-31T08:55:37.746Z,8.90
2018-01-31T08:58:06.322Z,9.50
2018-01-31T09:00:35.827Z,9.70
2018-01-31T09:03:04.698Z,10.10
2018-01-31T09:05:33.328Z,10.60
2018-01-31T09:08:02.574Z,11.50
2018-01-31T09:27:48.158Z,14.70
2018-01-31T09:30:17.800Z,14.70
2018-01-31T09:32:46.353Z,14.70
2018-01-31T09:35:15.529Z,14.10
2018-01-31T09:37:44.518Z,13.70
2018-01-31T09:40:13.702Z,13.30
2018-01-31T09:42:42.414Z,14.10
2018-01-31T09:45:14.801Z,14.60
2018-01-31T09:47:43.425Z,14.60
2018-01-31T10:08:52.410Z,16.20
2018-01-31T10:11:20.597Z,15.00
2018-01-31T10:13:49.245Z,15.60
2018-01-31T10:16:17.435Z,16.20
2018-01-31T10:18:45.965Z,16.30
2018-01-31T10:21:14.129Z,16.00
2018-01-31T10:23:42.542Z,14.80
2018-01-31T10:26:10.890Z,15.40
2018-01-31T10:28:39.060Z,16.10
2018-01-31T10:48:23.855Z,15.70
2018-01-31T10:50:52.271Z,15.10
2018-01-31T10:53:20.560Z,15.80
2018-01-31T10:58:17.581Z,15.30
2018-01-31T11:00:47.575Z,14.30
2018-01-31T11:03:17.014Z,14.30
2018-01-31T11:05:45.499Z,14.40
2018-01-31T11:08:13.972Z,14.90
2018-01-31T11:27:59.364Z,16.90
2018-01-31T11:30:28.452Z,17.50
2018-01-31T11:32:57.116Z,17.70
2018-01-31T11:35:26.376Z,17.40
2018-01-31T11:37:55.254Z,16.90
2018-01-31T11:40:23.944Z,16.30
2018-01-31T11:42:52.494Z,16.10
2018-01-31T11:45:20.931Z,16.60
2018-01-31T11:47:49.228Z,18.50
2018-01-31T12:07:32.652Z,14.60
2018-01-31T12:10:02.433Z,14.30
2018-01-31T12:12:31.703Z,14.00
2018-01-31T12:15:01.055Z,13.20
2018-01-31T12:17:30.855Z,12.40
2018-01-31T12:19:59.331Z,12.70
2018-01-31T12:22:28.075Z,13.20
2018-01-31T12:24:56.631Z,13.20
2018-01-31T12:27:26.178Z,12.40
2018-01-31T12:47:12.413Z,12.40
2018-01-31T12:49:40.830Z,12.50
2018-01-31T12:52:09.998Z,12.50
2018-01-31T12:54:38.979Z,12.60
2018-01-31T12:57:08.438Z,12.60
2018-01-31T12:59:36.667Z,12.60
2018-01-31T13:02:06.057Z,12.80
2018-01-31T13:04:34.833Z,12.80
2018-01-31T13:07:03.717Z,12.90
2018-01-31T13:26:50.351Z,12.30
2018-01-31T13:29:20.294Z,11.60
2018-01-31T13:31:49.203Z,11.50
2018-01-31T13:34:18.310Z,11.30
2018-01-31T13:36:48.031Z,11.10
2018-01-31T13:39:16.627Z,10.90
2018-01-31T13:41:45.645Z,10.90
2018-01-31T13:44:15.652Z,10.80
2018-01-31T13:46:43.819Z,10.90
2018-01-31T14:06:28.043Z,10.10
2018-01-31T14:08:57.571Z,10.00
2018-01-31T14:11:26.697Z,10.00
2018-01-31T14:13:56.375Z,9.90
2018-01-31T14:16:26.215Z,9.80
2018-01-31T14:18:55.125Z,9.70
2018-01-31T14:21:23.904Z,9.70
2018-01-31T14:23:52.713Z,9.60
2018-01-31T14:26:21.619Z,9.60
2018-01-31T14:46:07.317Z,9.50
2018-01-31T14:48:36.480Z,9.50
2018-01-31T14:51:04.990Z,9.50
2018-01-31T14:53:33.091Z,9.40
2018-01-31T14:56:01.315Z,9.40
2018-01-31T14:58:30.740Z,9.50
2018-01-31T15:00:58.769Z,9.50
2018-01-31T15:03:27.022Z,9.50
2018-01-31T15:05:56.449Z,9.40
2018-01-31T15:25:42.378Z,9.00
2018-01-31T15:28:11.510Z,8.90
2018-01-31T15:30:40.250Z,8.90
2018-01-31T15:33:08.436Z,8.90
2018-01-31T15:35:36.925Z,8.90
2018-01-31T15:38:05.185Z,8.90
2018-01-31T15:40:33.833Z,8.90
2018-01-31T15:43:02.994Z,8.90
2018-01-31T15:45:32.108Z,8.90
2018-01-31T16:05:18.980Z,8.20
2018-01-31T16:07:48.704Z,8.00
2018-01-31T16:10:17.781Z,7.80
2018-01-31T16:12:46.095Z,7.70
2018-01-31T16:15:15.258Z,7.60
2018-01-31T16:17:44.410Z,7.50
2018-01-31T16:20:13.695Z,7.50
2018-01-31T16:22:42.102Z,7.40
2018-01-31T16:25:11.619Z,7.40
2018-01-31T16:44:59.499Z,7.60
2018-01-31T16:47:27.979Z,7.60
2018-01-31T16:49:57.750Z,7.70
2018-01-31T16:52:26.178Z,7.80
2018-01-31T16:54:54.371Z,7.80
2018-01-31T16:57:23.044Z,7.90
2018-01-31T16:59:51.798Z,7.90
2018-01-31T17:02:20.781Z,7.90
2018-01-31T17:04:49.897Z,7.90
2018-01-31T17:24:34.816Z,7.70
2018-01-31T17:27:03.767Z,7.80
2018-01-31T17:29:32.595Z,7.80
2018-01-31T17:32:01.267Z,7.80
2018-01-31T17:34:29.801Z,7.70
2018-01-31T17:36:58.621Z,7.70
2018-01-31T17:39:27.334Z,7.70
2018-01-31T17:41:56.859Z,7.70
2018-01-31T17:44:25.802Z,7.50
2018-01-31T18:04:11.020Z,7.30
2018-01-31T18:06:41.327Z,7.20
2018-01-31T18:09:09.735Z,7.20
2018-01-31T18:11:38.908Z,7.20
2018-01-31T18:14:08.922Z,7.10
2018-01-31T18:16:38.558Z,7.10
2018-01-31T18:19:07.175Z,7.10
2018-01-31T18:21:36.279Z,7.10
2018-01-31T18:24:05.536Z,7.20
2018-01-31T18:43:50.426Z,7.50
2018-01-31T18:46:19.247Z,7.60
2018-01-31T18:48:47.660Z,7.60
2018-01-31T18:51:16.452Z,7.60
2018-01-31T18:53:44.892Z,7.50
2018-01-31T18:56:13.165Z,7.60
2018-01-31T18:58:42.558Z,7.60
2018-01-31T19:01:11.681Z,7.50
2018-01-31T19:03:40.769Z,7.40
2018-01-31T19:23:26.743Z,7.40
2018-01-31T19:25:55.804Z,7.40
2018-01-31T19:28:24.765Z,7.40
2018-01-31T19:30:53.159Z,7.40
2018-01-31T19:33:22.236Z,7.30
2018-01-31T19:35:50.500Z,7.30
2018-01-31T19:38:19.183Z,7.20
2018-01-31T19:40:47.654Z,7.30
2018-01-31T19:43:16.665Z,7.30
2018-01-31T20:03:01.682Z,7.40
2018-01-31T20:05:29.944Z,7.40
2018-01-31T20:07:58.546Z,7.40
2018-01-31T20:10:26.914Z,7.40
2018-01-31T20:12:56.314Z,7.40
2018-01-31T20:15:26.409Z,7.50
2018-01-31T20:17:55.861Z,7.40
2018-01-31T20:20:24.161Z,7.50
2018-01-31T20:22:52.488Z,7.60
2018-01-31T20:42:37.727Z,7.70
2018-01-31T20:45:06.908Z,7.70
2018-01-31T20:47:36.597Z,7.70
2018-01-31T20:50:04.942Z,7.70
2018-01-31T20:52:34.016Z,7.80
2018-01-31T20:55:03.251Z,7.80
2018-01-31T20:57:32.450Z,7.70
2018-01-31T21:00:01.912Z,7.70
2018-01-31T21:02:30.457Z,7.70
2018-01-31T21:22:15.091Z,7.70
2018-01-31T21:24:43.815Z,7.70
2018-01-31T21:27:12.658Z,7.70
2018-01-31T21:29:42.062Z,7.60
2018-01-31T21:32:11.022Z,7.60
2018-01-31T21:34:40.332Z,7.60
2018-01-31T21:37:09.213Z,7.50
2018-01-31T21:39:37.585Z,7.50
2018-01-31T21:42:06.672Z,7.60
2018-01-31T22:01:51.493Z,7.60
2018-01-31T22:04:20.331Z,7.60
2018-01-31T22:06:48.930Z,7.60
2018-01-31T22:09:18.543Z,7.50
2018-01-31T22:11:47.159Z,7.40
2018-01-31T22:14:16.673Z,7.40
2018-01-31T22:16:44.898Z,7.40
2018-01-31T22:19:14.113Z,7.50
2018-01-31T22:21:42.652Z,7.60
2018-01-31T22:41:28.652Z,7.40
2018-01-31T22:43:56.832Z,7.40
2018-01-31T22:46:25.377Z,7.40
2018-01-31T22:48:55.014Z,7.40
2018-01-31T22:51:23.932Z,7.40
2018-01-31T22:53:54.120Z,7.40
2018-01-31T22:56:22.519Z,7.40
2018-01-31T22:58:51.818Z,7.20
2018-01-31T23:01:21.236Z,7.10
2018-01-31T23:21:07.313Z,6.70
2018-01-31T23:23:36.614Z,6.80
2018-01-31T23:26:05.830Z,6.80
2018-01-31T23:28:35.362Z,6.80
2018-01-31T23:31:04.465Z,6.80
2018-01-31T23:33:33.188Z,6.80
2018-01-31T23:36:02.658Z,6.80
2018-01-31T23:38:31.722Z,6.80
2018-01-31T23:41:01.636Z,6.70
